Terminal Aerodrome Forecast
Issued by NWS

Home | Current Version | Previous Version | Graphics & Text | Print | Product List | Glossary On
Versions: 1 2 3 4 5 6 7 8 9 10 11 12 13 14 15 16 17 18
000
FTUS43 KMPX 282320
TAFAXN
TAF
KAXN 282320Z 2900/2924 30011G17KT P6SM VCSH BKN050
      TEMPO 2900/2902 33025G40KT 5SM -SHRA BR OVC035
     FM290700 30012G18KT P6SM OVC050
     FM290900 30011KT P6SM BKN025
     FM291300 30013G21KT P6SM BKN015 OVC025
     FM291500 21017G26KT P6SM VCSH OVC015 PROB30 2916/2920 5SM -SHRA
      BR OVC010=

USA.gov is the U.S. government's official web portal to all federal, state and local government web resources and services.